createdAt,value
2023-02-13T00:04:02.651Z,29.00
2023-02-13T00:08:24.559Z,30.15
2023-02-13T00:12:47.013Z,30.27
2023-02-13T00:17:09.264Z,30.50
2023-02-13T00:21:31.397Z,29.83
2023-02-13T00:25:53.160Z,29.25
2023-02-13T00:30:16.629Z,30.02
2023-02-13T00:34:38.566Z,31.00
2023-02-13T00:39:00.866Z,32.17
2023-02-13T00:43:22.876Z,31.50
2023-02-13T00:47:44.933Z,29.83
2023-02-13T00:52:07.123Z,31.42
2023-02-13T00:56:29.495Z,29.95
2023-02-13T01:00:54.076Z,29.45
2023-02-13T01:05:16.096Z,30.98
2023-02-13T01:09:37.917Z,30.27
2023-02-13T01:13:59.777Z,30.55
2023-02-13T01:18:22.086Z,30.30
2023-02-13T01:22:44.818Z,30.42
2023-02-13T01:27:07.054Z,30.27
2023-02-13T01:31:29.350Z,28.83
2023-02-13T01:35:52.417Z,29.42
2023-02-13T01:40:15.881Z,27.17
2023-02-13T01:44:59.953Z,30.42
2023-02-13T01:49:26.019Z,27.08
2023-02-13T01:54:00.452Z,28.17
2023-02-13T01:58:28.130Z,27.35
2023-02-13T02:03:14.340Z,25.70
2023-02-13T02:07:41.820Z,27.15
2023-02-13T02:12:36.073Z,25.45
2023-02-13T02:17:00.731Z,25.30
2023-02-13T02:22:03.019Z,26.15
2023-02-13T02:26:39.976Z,25.40
2023-02-13T02:31:39.872Z,24.60
2023-02-13T02:36:27.347Z,24.88
2023-02-13T02:41:11.518Z,25.50
2023-02-13T02:45:45.654Z,26.10
2023-02-13T02:50:42.114Z,24.98
2023-02-13T02:55:20.633Z,25.10
2023-02-13T03:00:08.235Z,23.80
2023-02-13T03:05:10.183Z,22.40
2023-02-13T03:10:00.185Z,22.67
2023-02-13T03:14:24.491Z,21.98
2023-02-13T03:19:10.995Z,21.48
2023-02-13T03:24:12.650Z,22.35
2023-02-13T03:29:04.370Z,21.80
2023-02-13T03:33:55.231Z,22.98
2023-02-13T03:38:47.931Z,22.23
2023-02-13T03:43:17.592Z,22.20
2023-02-13T03:47:41.472Z,22.52
2023-02-13T03:52:30.091Z,21.63
2023-02-13T03:57:12.072Z,22.70
2023-02-13T04:01:36.569Z,22.15
2023-02-13T04:06:13.229Z,22.05
2023-02-13T04:10:39.735Z,22.27
2023-02-13T04:15:38.714Z,22.40
2023-02-13T04:20:01.000Z,20.40
2023-02-13T04:24:23.418Z,22.02
2023-02-13T04:28:45.711Z,22.45
2023-02-13T04:33:07.751Z,22.45
2023-02-13T04:37:30.153Z,21.25
2023-02-13T04:41:52.144Z,21.13
2023-02-13T04:46:14.163Z,19.70
2023-02-13T04:50:36.400Z,21.80
2023-02-13T04:54:58.493Z,20.38
2023-02-13T04:59:20.599Z,19.70
2023-02-13T05:03:43.244Z,21.73
2023-02-13T05:08:07.674Z,21.27
2023-02-13T05:12:29.992Z,20.13
2023-02-13T05:16:52.516Z,20.90
2023-02-13T05:21:50.139Z,20.25
2023-02-13T05:26:12.300Z,21.00
2023-02-13T05:30:34.154Z,19.63
2023-02-13T05:35:01.083Z,18.80
2023-02-13T05:39:24.574Z,18.33
2023-02-13T05:43:46.655Z,19.42
2023-02-13T05:48:08.897Z,20.95
2023-02-13T05:52:30.896Z,18.08
2023-02-13T05:56:53.135Z,19.88
2023-02-13T06:01:15.136Z,18.70
2023-02-13T06:05:37.400Z,18.25
2023-02-13T06:09:59.880Z,20.80
2023-02-13T06:14:21.652Z,21.88
2023-02-13T06:18:44.070Z,21.10
2023-02-13T06:23:05.929Z,20.73
2023-02-13T06:27:28.322Z,21.48
2023-02-13T06:31:50.556Z,22.02
2023-02-13T06:36:12.662Z,20.42
2023-02-13T06:40:34.663Z,22.08
2023-02-13T06:44:56.902Z,20.15
2023-02-13T06:49:19.458Z,22.13
2023-02-13T06:53:41.673Z,23.17
2023-02-13T06:58:03.591Z,22.52
2023-02-13T07:02:25.458Z,25.45
2023-02-13T07:06:50.745Z,26.00
2023-02-13T07:11:20.560Z,23.13
2023-02-13T07:15:43.244Z,23.40
2023-02-13T07:20:07.015Z,23.20
2023-02-13T07:24:29.303Z,24.23
2023-02-13T07:29:05.651Z,23.25
2023-02-13T07:33:36.245Z,23.02
2023-02-13T07:37:59.518Z,23.13
2023-02-13T07:42:23.314Z,23.33
2023-02-13T07:46:45.514Z,23.75
2023-02-13T07:51:07.710Z,22.45
2023-02-13T07:55:31.022Z,22.58
2023-02-13T07:59:53.245Z,21.75
2023-02-13T08:04:15.876Z,19.27
2023-02-13T08:08:39.086Z,18.40
2023-02-13T08:13:01.557Z,18.40
2023-02-13T08:17:23.479Z,14.23
2023-02-13T08:21:46.190Z,16.88
2023-02-13T08:26:08.339Z,15.65
2023-02-13T08:30:30.485Z,15.90
2023-02-13T08:34:52.730Z,16.55
2023-02-13T08:39:15.940Z,17.17
2023-02-13T08:43:38.392Z,17.92
2023-02-13T08:48:01.172Z,17.90
2023-02-13T08:52:23.051Z,20.02
2023-02-13T08:56:46.207Z,18.58
2023-02-13T09:01:09.931Z,16.25
2023-02-13T09:05:32.852Z,19.75
2023-02-13T09:09:55.314Z,20.42
2023-02-13T09:14:17.212Z,18.35
2023-02-13T09:18:43.116Z,20.42
2023-02-13T09:23:05.297Z,18.98
2023-02-13T09:27:27.860Z,20.58
2023-02-13T09:31:50.054Z,20.65
2023-02-13T09:36:19.351Z,19.13
2023-02-13T09:40:56.855Z,15.70
2023-02-13T09:45:22.056Z,19.10
2023-02-13T09:49:54.141Z,16.70
2023-02-13T09:54:20.997Z,13.63
2023-02-13T09:58:55.618Z,14.00
2023-02-13T10:03:41.930Z,14.77
2023-02-13T10:08:46.317Z,11.65
2023-02-13T10:13:31.534Z,11.10
2023-02-13T10:18:41.441Z,9.55
2023-02-13T10:23:28.100Z,9.38
2023-02-13T10:28:15.866Z,10.13
2023-02-13T10:33:20.029Z,9.25
2023-02-13T10:37:42.634Z,10.05
2023-02-13T10:42:26.257Z,10.52
2023-02-13T10:47:15.319Z,10.40
2023-02-13T10:52:04.862Z,10.52
2023-02-13T10:56:54.132Z,9.45
2023-02-13T11:01:31.411Z,10.52
2023-02-13T11:05:56.854Z,9.82
2023-02-13T11:10:27.364Z,9.88
2023-02-13T11:15:06.461Z,10.38
2023-02-13T11:19:53.697Z,9.75
2023-02-13T11:24:24.773Z,10.70
2023-02-13T11:29:04.489Z,10.23
2023-02-13T11:33:31.112Z,10.00
2023-02-13T11:38:20.631Z,10.80
2023-02-13T11:42:44.073Z,10.63
2023-02-13T11:47:06.870Z,10.35
2023-02-13T11:51:45.184Z,10.63
2023-02-13T11:56:15.410Z,10.20
2023-02-13T12:00:41.674Z,10.18
2023-02-13T12:05:27.519Z,9.82
2023-02-13T12:10:15.315Z,9.85
2023-02-13T12:14:46.156Z,10.40
2023-02-13T12:19:19.976Z,10.68
2023-02-13T12:23:44.837Z,10.13
2023-02-13T12:28:17.450Z,10.75
2023-02-13T12:33:04.885Z,9.90
2023-02-13T12:38:00.111Z,9.23
2023-02-13T12:42:49.383Z,9.77
2023-02-13T12:47:35.525Z,10.02
2023-02-13T12:52:48.436Z,10.65
2023-02-13T12:57:26.153Z,9.40
2023-02-13T13:02:00.694Z,9.48
2023-02-13T13:07:07.954Z,9.13
2023-02-13T13:12:04.978Z,8.65
2023-02-13T13:17:09.036Z,9.70
2023-02-13T13:21:54.132Z,8.77
2023-02-13T13:26:25.229Z,8.13
2023-02-13T13:30:48.207Z,9.43
2023-02-13T13:35:16.374Z,9.10
2023-02-13T13:40:01.758Z,8.32
2023-02-13T13:44:57.996Z,8.32
2023-02-13T13:49:58.739Z,8.95
2023-02-13T13:54:25.322Z,9.05
2023-02-13T13:58:49.795Z,9.50
2023-02-13T14:03:36.589Z,9.70
2023-02-13T14:08:25.032Z,9.13
2023-02-13T14:12:56.477Z,10.43
2023-02-13T14:17:44.738Z,11.30
2023-02-13T14:22:28.253Z,10.30
2023-02-13T14:27:05.270Z,10.68
2023-02-13T14:32:02.925Z,10.02
2023-02-13T14:36:49.059Z,10.93
2023-02-13T14:41:54.287Z,10.70
2023-02-13T14:46:36.351Z,12.23
2023-02-13T14:51:00.412Z,11.65
2023-02-13T14:55:38.480Z,11.80
2023-02-13T15:00:12.915Z,12.50
2023-02-13T15:04:46.667Z,12.70
2023-02-13T15:09:39.193Z,12.18
2023-02-13T15:14:22.590Z,12.50
2023-02-13T15:18:53.171Z,13.60
2023-02-13T15:23:26.758Z,14.02
2023-02-13T15:27:58.797Z,13.20
2023-02-13T15:32:33.582Z,14.25
2023-02-13T15:36:56.591Z,14.27
2023-02-13T15:41:28.191Z,13.73
2023-02-13T15:45:50.513Z,13.52
2023-02-13T15:50:36.202Z,12.80
2023-02-13T15:54:58.983Z,14.30
2023-02-13T15:59:22.092Z,13.80
2023-02-13T16:03:48.172Z,14.77
2023-02-13T16:08:25.451Z,16.33
2023-02-13T16:12:49.109Z,16.02
2023-02-13T16:17:29.351Z,15.43
2023-02-13T16:21:53.230Z,16.95
2023-02-13T16:26:17.166Z,15.55
2023-02-13T16:30:46.122Z,16.70
2023-02-13T16:35:32.892Z,14.90
2023-02-13T16:39:54.834Z,16.50
2023-02-13T16:44:29.435Z,16.77
2023-02-13T16:48:57.535Z,17.70
2023-02-13T16:53:20.390Z,16.58
2023-02-13T16:57:44.497Z,17.42
2023-02-13T17:02:33.355Z,18.30
2023-02-13T17:06:56.306Z,18.15
2023-02-13T17:11:19.682Z,19.05
2023-02-13T17:15:48.820Z,18.90
2023-02-13T17:20:18.115Z,20.73
2023-02-13T17:24:40.178Z,19.15
2023-02-13T17:29:02.495Z,19.27
2023-02-13T17:33:28.266Z,27.25
2023-02-13T17:37:50.539Z,27.40
2023-02-13T17:42:28.845Z,20.88
2023-02-13T17:46:50.956Z,23.90
2023-02-13T17:51:16.293Z,21.88
2023-02-13T17:55:38.562Z,23.70
2023-02-13T18:00:04.718Z,20.30
2023-02-13T18:04:34.111Z,21.75
2023-02-13T18:08:56.153Z,22.42
2023-02-13T18:13:18.129Z,23.48
2023-02-13T18:17:41.091Z,21.92
2023-02-13T18:22:05.071Z,22.20
2023-02-13T18:26:27.329Z,22.08
2023-02-13T18:30:49.458Z,22.15
2023-02-13T18:35:13.357Z,21.52
2023-02-13T18:39:35.414Z,25.40
2023-02-13T18:43:58.444Z,21.58
2023-02-13T18:48:21.071Z,22.52
2023-02-13T18:52:46.910Z,20.10
2023-02-13T18:57:09.103Z,21.75
2023-02-13T19:01:31.307Z,22.25
2023-02-13T19:05:53.552Z,24.42
2023-02-13T19:10:16.074Z,22.08
2023-02-13T19:14:39.940Z,22.58
2023-02-13T19:19:07.728Z,26.55
2023-02-13T19:23:30.243Z,26.77
2023-02-13T19:27:55.110Z,26.73
2023-02-13T19:32:17.740Z,29.17
2023-02-13T19:36:40.133Z,27.85
2023-02-13T19:41:13.034Z,29.40
2023-02-13T19:45:35.488Z,29.77
2023-02-13T19:49:57.376Z,32.95
2023-02-13T19:54:19.436Z,31.63
2023-02-13T19:58:43.335Z,31.67
2023-02-13T20:03:05.445Z,31.48
2023-02-13T20:07:27.881Z,32.25
2023-02-13T20:11:52.775Z,30.75
2023-02-13T20:16:17.294Z,34.05
2023-02-13T20:20:40.506Z,34.70
2023-02-13T20:25:03.235Z,40.42
2023-02-13T20:29:26.053Z,35.75
2023-02-13T20:33:50.590Z,34.78
2023-02-13T20:38:13.754Z,33.55
2023-02-13T20:42:37.150Z,32.83
2023-02-13T20:47:00.257Z,29.48
2023-02-13T20:51:23.775Z,29.35
2023-02-13T20:55:46.019Z,25.98
2023-02-13T21:00:13.176Z,27.38
2023-02-13T21:04:35.462Z,25.98
2023-02-13T21:08:58.532Z,27.35
2023-02-13T21:13:20.947Z,27.88
2023-02-13T21:17:43.276Z,27.92
2023-02-13T21:22:12.390Z,26.95
2023-02-13T21:26:34.893Z,28.10
2023-02-13T21:30:57.736Z,27.10
2023-02-13T21:35:19.909Z,28.65
2023-02-13T21:39:42.381Z,26.40
2023-02-13T21:44:04.838Z,28.13
2023-02-13T21:48:27.617Z,27.15
2023-02-13T21:52:52.672Z,27.60
2023-02-13T21:57:14.878Z,28.15
2023-02-13T22:01:38.239Z,28.23
2023-02-13T22:06:01.040Z,27.42
2023-02-13T22:10:23.522Z,26.88
2023-02-13T22:14:45.684Z,26.23
2023-02-13T22:19:08.522Z,28.88
2023-02-13T22:23:31.022Z,27.60
2023-02-13T22:27:56.323Z,26.83
2023-02-13T22:32:19.004Z,26.92
2023-02-13T22:36:43.035Z,27.63
2023-02-13T22:41:14.484Z,25.38
2023-02-13T22:45:40.269Z,26.27
2023-02-13T22:50:02.430Z,25.85
2023-02-13T22:54:24.794Z,23.52
2023-02-13T22:58:46.770Z,24.05
2023-02-13T23:03:08.784Z,24.05
2023-02-13T23:07:31.243Z,24.50
2023-02-13T23:12:12.123Z,25.65
2023-02-13T23:16:54.157Z,24.50
2023-02-13T23:21:16.049Z,24.73
2023-02-13T23:25:39.591Z,25.65
2023-02-13T23:30:01.796Z,25.30
2023-02-13T23:34:24.279Z,24.63
2023-02-13T23:38:46.789Z,25.63
2023-02-13T23:43:09.092Z,24.25
2023-02-13T23:47:30.987Z,24.13
2023-02-13T23:51:53.247Z,22.63
2023-02-13T23:56:15.313Z,23.13
